createdAt,value
2023-04-06T00:02:08.055Z,11.63
2023-04-06T00:04:34.572Z,12.48
2023-04-06T00:07:01.144Z,10.80
2023-04-06T00:09:27.678Z,13.65
2023-04-06T00:11:54.121Z,12.87
2023-04-06T00:14:21.079Z,11.13
2023-04-06T00:16:47.858Z,12.43
2023-04-06T00:19:14.412Z,9.90
2023-04-06T00:21:40.883Z,9.75
2023-04-06T00:24:07.447Z,11.47
2023-04-06T00:26:33.999Z,10.75
2023-04-06T00:29:00.757Z,11.40
2023-04-06T00:31:27.279Z,12.30
2023-04-06T00:33:53.871Z,10.70
2023-04-06T00:36:20.467Z,11.17
2023-04-06T00:38:47.013Z,10.63
2023-04-06T00:41:13.734Z,12.00
2023-04-06T00:43:40.334Z,10.60
2023-04-06T00:46:06.915Z,10.95
2023-04-06T00:48:33.830Z,11.90
2023-04-06T00:51:02.574Z,13.48
2023-04-06T00:53:29.068Z,11.07
2023-04-06T00:55:56.767Z,12.15
2023-04-06T00:58:23.260Z,11.27
2023-04-06T01:00:55.748Z,10.27
2023-04-06T01:03:23.514Z,13.50
2023-04-06T01:05:50.424Z,11.05
2023-04-06T01:08:21.811Z,11.35
2023-04-06T01:10:51.462Z,11.73
2023-04-06T01:13:25.462Z,11.77
2023-04-06T01:15:59.457Z,11.35
2023-04-06T01:18:44.267Z,13.27
2023-04-06T01:21:16.881Z,11.93
2023-04-06T01:24:00.353Z,11.82
2023-04-06T01:26:35.765Z,11.93
2023-04-06T01:29:07.290Z,11.95
2023-04-06T01:31:34.030Z,12.20
2023-04-06T01:34:00.621Z,11.23
2023-04-06T01:36:27.553Z,14.40
2023-04-06T01:39:13.013Z,11.17
2023-04-06T01:41:40.740Z,11.13
2023-04-06T01:44:07.351Z,13.07
2023-04-06T01:46:33.937Z,13.43
2023-04-06T01:49:03.006Z,11.85
2023-04-06T01:51:37.595Z,12.10
2023-04-06T01:54:07.291Z,11.73
2023-04-06T01:57:00.006Z,12.80
2023-04-06T01:59:46.314Z,11.63
2023-04-06T02:02:22.329Z,13.38
2023-04-06T02:04:58.305Z,11.37
2023-04-06T02:07:25.690Z,11.82
2023-04-06T02:09:56.558Z,12.30
2023-04-06T02:12:29.774Z,11.13
2023-04-06T02:14:56.446Z,12.73
2023-04-06T02:17:22.916Z,13.90
2023-04-06T02:19:49.395Z,11.13
2023-04-06T02:22:15.897Z,12.43
2023-04-06T02:24:42.467Z,11.82
2023-04-06T02:27:09.101Z,11.52
2023-04-06T02:29:35.568Z,10.47
2023-04-06T02:32:03.375Z,12.80
2023-04-06T02:34:32.503Z,12.70
2023-04-06T02:36:59.881Z,10.93
2023-04-06T02:39:26.436Z,11.60
2023-04-06T02:41:53.212Z,14.80
2023-04-06T02:44:23.215Z,11.20
2023-04-06T02:46:49.782Z,12.38
2023-04-06T02:49:16.314Z,13.10
2023-04-06T02:51:43.674Z,12.30
2023-04-06T02:54:21.171Z,14.43
2023-04-06T02:56:47.757Z,13.98
2023-04-06T02:59:14.591Z,13.25
2023-04-06T03:01:47.040Z,11.88
2023-04-06T03:04:13.772Z,15.93
2023-04-06T03:06:40.288Z,16.13
2023-04-06T03:09:17.442Z,11.93
2023-04-06T03:11:44.977Z,14.48
2023-04-06T03:14:11.926Z,14.65
2023-04-06T03:16:38.452Z,15.18
2023-04-06T03:19:04.994Z,12.07
2023-04-06T03:21:34.646Z,13.65
2023-04-06T03:24:01.655Z,13.40
2023-04-06T03:26:28.177Z,13.45
2023-04-06T03:28:54.820Z,13.73
2023-04-06T03:31:29.624Z,14.23
2023-04-06T03:34:05.577Z,12.43
2023-04-06T03:36:35.758Z,13.60
2023-04-06T03:39:03.904Z,13.75
2023-04-06T03:41:33.362Z,13.80
2023-04-06T03:44:20.733Z,12.93
2023-04-06T03:46:47.315Z,12.23
2023-04-06T03:49:14.119Z,14.05
2023-04-06T03:51:43.687Z,11.95
2023-04-06T03:54:10.215Z,14.20
2023-04-06T03:56:37.415Z,13.67
2023-04-06T03:59:03.993Z,13.63
2023-04-06T04:01:30.694Z,15.07
2023-04-06T04:03:57.504Z,13.52
2023-04-06T04:06:24.258Z,13.80
2023-04-06T04:08:50.945Z,12.60
2023-04-06T04:11:17.468Z,14.75
2023-04-06T04:13:47.256Z,14.60
2023-04-06T04:16:14.250Z,13.63
2023-04-06T04:18:44.527Z,16.52
2023-04-06T04:21:11.050Z,15.80
2023-04-06T04:23:37.766Z,14.60
2023-04-06T04:26:04.768Z,15.05
2023-04-06T04:28:31.365Z,14.65
2023-04-06T04:30:58.309Z,15.63
2023-04-06T04:33:24.831Z,18.13
2023-04-06T04:35:54.482Z,15.77
2023-04-06T04:38:23.834Z,16.02
2023-04-06T04:40:53.331Z,15.07
2023-04-06T04:43:20.053Z,13.63
2023-04-06T04:45:46.705Z,15.60
2023-04-06T04:48:23.765Z,16.45
2023-04-06T04:50:56.254Z,15.77
2023-04-06T04:53:26.151Z,17.17
2023-04-06T04:55:58.484Z,15.20
2023-04-06T04:58:26.961Z,14.07
2023-04-06T05:00:57.057Z,14.10
2023-04-06T05:03:26.657Z,16.58
2023-04-06T05:05:58.515Z,13.68
2023-04-06T05:08:28.675Z,15.70
2023-04-06T05:10:55.511Z,15.90
2023-04-06T05:13:22.679Z,15.27
2023-04-06T05:15:51.732Z,15.32
2023-04-06T05:18:28.210Z,15.82
2023-04-06T05:20:55.754Z,15.30
2023-04-06T05:23:29.306Z,16.30
2023-04-06T05:25:57.419Z,15.43
2023-04-06T05:28:23.977Z,17.85
2023-04-06T05:30:50.708Z,18.45
2023-04-06T05:33:17.437Z,18.20
2023-04-06T05:36:02.624Z,18.70
2023-04-06T05:38:29.434Z,15.82
2023-04-06T05:40:59.523Z,15.57
2023-04-06T05:43:30.645Z,16.95
2023-04-06T05:45:59.178Z,16.67
2023-04-06T05:48:27.074Z,15.60
2023-04-06T05:50:54.189Z,16.45
2023-04-06T05:53:27.485Z,16.67
2023-04-06T05:55:57.853Z,16.20
2023-04-06T05:58:26.081Z,17.15
2023-04-06T06:01:01.750Z,17.73
2023-04-06T06:03:36.806Z,17.50
2023-04-06T06:06:05.521Z,16.20
2023-04-06T06:08:53.443Z,16.67
2023-04-06T06:11:20.368Z,16.17
2023-04-06T06:13:48.507Z,15.67
2023-04-06T06:16:15.681Z,18.58
2023-04-06T06:18:45.818Z,17.02
2023-04-06T06:21:13.433Z,16.05
2023-04-06T06:23:40.550Z,17.42
2023-04-06T06:26:07.457Z,15.13
2023-04-06T06:28:34.090Z,15.98
2023-04-06T06:31:02.039Z,16.10
2023-04-06T06:33:29.754Z,16.00
2023-04-06T06:35:57.945Z,18.48
2023-04-06T06:38:24.450Z,15.77
2023-04-06T06:40:51.836Z,13.70
2023-04-06T06:43:19.204Z,18.98
2023-04-06T06:45:52.010Z,16.80
2023-04-06T06:48:18.625Z,16.15
2023-04-06T06:50:45.113Z,13.27
2023-04-06T06:53:13.216Z,16.38
2023-04-06T06:55:39.762Z,15.65
2023-04-06T06:58:07.164Z,17.85
2023-04-06T07:00:33.802Z,17.30
2023-04-06T07:03:00.608Z,15.10
2023-04-06T07:05:28.963Z,18.88
2023-04-06T07:07:57.624Z,13.82
2023-04-06T07:10:25.767Z,19.52
2023-04-06T07:12:52.379Z,19.45
2023-04-06T07:15:18.939Z,18.67
2023-04-06T07:17:46.491Z,16.80
2023-04-06T07:20:13.616Z,18.27
2023-04-06T07:22:41.196Z,23.58
2023-04-06T07:25:08.134Z,23.15
2023-04-06T07:27:34.927Z,24.30
2023-04-06T07:30:02.192Z,18.52
2023-04-06T07:32:29.012Z,15.73
2023-04-06T07:34:55.593Z,22.45
2023-04-06T07:37:22.823Z,21.55
2023-04-06T07:39:50.193Z,19.53
2023-04-06T07:42:17.072Z,18.90
2023-04-06T07:44:44.372Z,19.52
2023-04-06T07:47:11.756Z,20.15
2023-04-06T07:49:38.290Z,20.75
2023-04-06T07:52:05.921Z,23.80
2023-04-06T07:54:33.407Z,21.27
2023-04-06T07:56:59.949Z,21.85
2023-04-06T07:59:26.756Z,18.90
2023-04-06T08:01:53.288Z,20.30
2023-04-06T08:04:21.499Z,18.00
2023-04-06T08:06:48.002Z,18.23
2023-04-06T08:09:14.543Z,19.13
2023-04-06T08:11:41.398Z,20.02
2023-04-06T08:14:08.127Z,17.00
2023-04-06T08:16:34.718Z,21.63
2023-04-06T08:19:01.215Z,19.30
2023-04-06T08:21:27.686Z,20.77
2023-04-06T08:23:54.137Z,19.17
2023-04-06T08:26:20.958Z,17.67
2023-04-06T08:28:47.425Z,21.70
2023-04-06T08:31:13.941Z,18.70
2023-04-06T08:33:40.677Z,19.48
2023-04-06T08:36:09.051Z,19.30
2023-04-06T08:38:35.747Z,19.15
2023-04-06T08:41:08.511Z,25.10
2023-04-06T08:43:40.277Z,19.70
2023-04-06T08:46:06.954Z,22.67
2023-04-06T08:48:34.303Z,19.58
2023-04-06T08:51:01.111Z,20.73
2023-04-06T08:53:27.604Z,21.47
2023-04-06T08:55:54.621Z,19.85
2023-04-06T08:58:31.567Z,22.63
2023-04-06T09:01:09.260Z,23.65
2023-04-06T09:03:39.515Z,21.58
2023-04-06T09:06:07.333Z,22.03
2023-04-06T09:08:35.520Z,20.30
2023-04-06T09:11:03.526Z,26.98
2023-04-06T09:13:30.347Z,21.80
2023-04-06T09:16:04.622Z,18.88
2023-04-06T09:18:32.275Z,22.27
2023-04-06T09:21:03.728Z,23.85
2023-04-06T09:23:30.812Z,23.50
2023-04-06T09:26:14.546Z,24.50
2023-04-06T09:28:46.983Z,23.45
2023-04-06T09:31:18.348Z,25.47
2023-04-06T09:33:46.861Z,24.88
2023-04-06T09:36:16.368Z,24.30
2023-04-06T09:38:56.810Z,22.20
2023-04-06T09:41:31.253Z,19.70
2023-04-06T09:44:11.440Z,29.27
2023-04-06T09:46:59.072Z,21.10
2023-04-06T09:49:29.039Z,24.30
2023-04-06T09:51:59.548Z,22.52
2023-04-06T09:54:29.960Z,19.05
2023-04-06T09:56:59.673Z,19.90
2023-04-06T09:59:47.607Z,20.75
2023-04-06T10:02:29.654Z,22.02
2023-04-06T10:05:34.536Z,22.85
2023-04-06T10:08:06.603Z,17.42
2023-04-06T10:10:33.114Z,23.67
2023-04-06T10:12:59.835Z,20.55
2023-04-06T10:15:28.756Z,20.13
2023-04-06T10:17:55.538Z,19.75
2023-04-06T10:20:26.569Z,24.65
2023-04-06T10:22:55.071Z,21.37
2023-04-06T10:25:29.566Z,22.98
2023-04-06T10:28:06.542Z,23.55
2023-04-06T10:30:34.317Z,23.13
2023-04-06T10:33:01.120Z,24.05
2023-04-06T10:35:40.075Z,20.63
2023-04-06T10:38:06.841Z,21.25
2023-04-06T10:40:37.124Z,20.05
2023-04-06T10:43:22.063Z,22.23
2023-04-06T10:46:00.508Z,21.08
2023-04-06T10:48:44.063Z,21.03
2023-04-06T10:51:16.004Z,22.33
2023-04-06T10:53:47.737Z,20.45
2023-04-06T10:56:16.297Z,22.13
2023-04-06T10:58:50.296Z,20.90
2023-04-06T11:01:18.333Z,21.63
2023-04-06T11:03:50.432Z,20.52
2023-04-06T11:06:35.042Z,28.83
2023-04-06T11:09:01.616Z,20.95
2023-04-06T11:11:28.345Z,21.33
2023-04-06T11:13:58.327Z,22.03
2023-04-06T11:16:30.751Z,22.70
2023-04-06T11:18:59.846Z,23.58
2023-04-06T11:21:44.524Z,25.13
2023-04-06T11:24:13.293Z,22.10
2023-04-06T11:26:49.234Z,23.57
2023-04-06T11:29:21.036Z,25.50
2023-04-06T11:31:49.442Z,24.90
2023-04-06T11:34:20.942Z,22.02
2023-04-06T11:36:49.342Z,23.20
2023-04-06T11:39:20.682Z,25.03
2023-04-06T11:41:51.244Z,27.27
2023-04-06T11:44:33.771Z,23.23
2023-04-06T11:47:01.812Z,19.85
2023-04-06T11:49:30.324Z,21.27
2023-04-06T11:51:58.157Z,21.90
2023-04-06T11:54:35.811Z,24.95
2023-04-06T11:57:03.348Z,20.50
2023-04-06T11:59:30.010Z,20.63
2023-04-06T12:01:58.170Z,19.95
2023-04-06T12:04:25.005Z,20.73
2023-04-06T12:06:51.820Z,21.52
2023-04-06T12:09:18.567Z,14.75
2023-04-06T12:11:45.212Z,16.90
2023-04-06T12:14:12.303Z,15.68
2023-04-06T12:16:38.812Z,15.73
2023-04-06T12:19:05.471Z,21.60
2023-04-06T12:21:32.645Z,18.42
2023-04-06T12:23:59.674Z,14.95
2023-04-06T12:26:26.542Z,15.85
2023-04-06T12:28:53.522Z,17.93
2023-04-06T12:31:22.303Z,16.42
2023-04-06T12:33:50.312Z,22.65
2023-04-06T12:36:20.141Z,19.35
2023-04-06T12:38:48.794Z,17.55
2023-04-06T12:41:15.883Z,16.00
2023-04-06T12:43:43.212Z,16.90
2023-04-06T12:46:10.277Z,18.77
2023-04-06T12:48:37.398Z,20.10
2023-04-06T12:51:06.268Z,21.85
2023-04-06T12:53:33.971Z,18.37
2023-04-06T12:56:01.542Z,19.30
2023-04-06T12:58:29.222Z,19.23
2023-04-06T13:00:57.000Z,20.30
2023-04-06T13:03:23.658Z,17.00
2023-04-06T13:05:52.957Z,20.40
2023-04-06T13:08:20.982Z,22.02
2023-04-06T13:10:49.055Z,20.63
2023-04-06T13:13:16.136Z,18.90
2023-04-06T13:15:42.738Z,18.73
2023-04-06T13:18:09.889Z,15.40
2023-04-06T13:20:36.638Z,16.75
2023-04-06T13:23:03.182Z,15.07
2023-04-06T13:25:30.635Z,17.67
2023-04-06T13:27:57.176Z,16.85
2023-04-06T13:30:23.885Z,19.50
2023-04-06T13:32:50.548Z,20.00
2023-04-06T13:35:17.731Z,16.77
2023-04-06T13:37:45.222Z,18.88
2023-04-06T13:40:12.268Z,16.30
2023-04-06T13:42:41.747Z,13.37
2023-04-06T13:45:08.974Z,14.98
2023-04-06T13:47:35.892Z,14.85
2023-04-06T13:50:02.514Z,14.05
2023-04-06T13:52:28.994Z,13.30
2023-04-06T13:54:55.524Z,14.37
2023-04-06T13:57:22.250Z,14.27
2023-04-06T13:59:50.682Z,15.32
2023-04-06T14:02:17.574Z,15.35
2023-04-06T14:04:44.189Z,14.15
2023-04-06T14:07:10.662Z,15.17
2023-04-06T14:09:37.141Z,13.38
2023-04-06T14:12:03.710Z,13.38
2023-04-06T14:14:30.438Z,14.75
2023-04-06T14:16:57.061Z,12.07
2023-04-06T14:19:23.558Z,14.60
2023-04-06T14:21:50.483Z,12.88
2023-04-06T14:24:18.967Z,13.88
2023-04-06T14:26:45.566Z,12.73
2023-04-06T14:29:12.064Z,12.63
2023-04-06T14:31:38.658Z,13.10
2023-04-06T14:34:05.586Z,14.10
2023-04-06T14:36:37.407Z,14.77
2023-04-06T14:39:07.625Z,14.20
2023-04-06T14:41:35.665Z,14.95
2023-04-06T14:44:02.929Z,13.23
2023-04-06T14:46:29.532Z,14.82
2023-04-06T14:48:59.854Z,13.25
2023-04-06T14:51:28.151Z,13.77
2023-04-06T14:53:55.342Z,14.27
2023-04-06T14:56:25.401Z,15.77
2023-04-06T14:58:52.432Z,13.85
2023-04-06T15:01:21.901Z,14.15
2023-04-06T15:03:48.773Z,14.13
2023-04-06T15:06:17.397Z,16.00
2023-04-06T15:08:44.633Z,14.83
2023-04-06T15:11:12.108Z,14.07
2023-04-06T15:13:39.393Z,14.35
2023-04-06T15:16:06.606Z,13.27
2023-04-06T15:18:34.078Z,13.70
2023-04-06T15:21:00.596Z,13.83
2023-04-06T15:23:30.558Z,14.60
2023-04-06T15:26:00.084Z,14.70
2023-04-06T15:28:26.862Z,16.10
2023-04-06T15:30:54.891Z,17.02
2023-04-06T15:33:21.862Z,16.17
2023-04-06T15:35:48.881Z,15.48
2023-04-06T15:38:15.758Z,16.95
2023-04-06T15:40:47.074Z,16.08
2023-04-06T15:43:14.204Z,15.27
2023-04-06T15:45:41.765Z,17.43
2023-04-06T15:48:08.920Z,15.27
2023-04-06T15:50:36.561Z,14.80
2023-04-06T15:53:03.391Z,16.45
2023-04-06T15:55:29.867Z,16.05
2023-04-06T15:57:56.318Z,15.97
2023-04-06T16:00:22.989Z,16.02
2023-04-06T16:02:49.618Z,16.67
2023-04-06T16:05:16.303Z,17.27
2023-04-06T16:07:43.120Z,15.90
2023-04-06T16:10:10.380Z,15.33
2023-04-06T16:12:36.939Z,16.52
2023-04-06T16:15:03.584Z,16.70
2023-04-06T16:17:30.404Z,18.92
2023-04-06T16:19:57.067Z,15.10
2023-04-06T16:22:23.591Z,16.00
2023-04-06T16:24:50.419Z,16.85
2023-04-06T16:27:17.638Z,17.45
2023-04-06T16:29:44.113Z,16.95
2023-04-06T16:32:12.256Z,19.33
2023-04-06T16:34:38.895Z,16.17
2023-04-06T16:37:05.710Z,15.73
2023-04-06T16:39:32.326Z,17.35
2023-04-06T16:41:59.737Z,15.50
2023-04-06T16:44:28.437Z,15.40
2023-04-06T16:46:54.910Z,19.07
2023-04-06T16:49:21.639Z,15.82
2023-04-06T16:51:49.718Z,15.68
2023-04-06T16:54:16.653Z,16.30
2023-04-06T16:56:43.224Z,15.75
2023-04-06T16:59:09.979Z,17.00
2023-04-06T17:01:36.827Z,16.23
2023-04-06T17:04:03.678Z,22.10
2023-04-06T17:06:30.982Z,15.10
2023-04-06T17:08:59.635Z,15.57
2023-04-06T17:11:31.676Z,16.23
2023-04-06T17:14:02.724Z,15.73
2023-04-06T17:16:29.628Z,17.98
2023-04-06T17:18:57.205Z,14.85
2023-04-06T17:21:24.054Z,13.77
2023-04-06T17:23:50.539Z,14.33
2023-04-06T17:26:17.008Z,15.52
2023-04-06T17:28:43.874Z,16.30
2023-04-06T17:31:12.246Z,14.90
2023-04-06T17:33:40.263Z,16.42
2023-04-06T17:36:09.624Z,18.33
2023-04-06T17:38:36.209Z,16.40
2023-04-06T17:41:06.049Z,19.08
2023-04-06T17:43:33.416Z,19.67
2023-04-06T17:45:59.948Z,18.38
2023-04-06T17:48:27.706Z,15.90
2023-04-06T17:50:54.256Z,19.20
2023-04-06T17:53:20.780Z,19.08
2023-04-06T17:55:47.389Z,18.52
2023-04-06T17:58:13.881Z,21.35
2023-04-06T18:00:40.324Z,21.97
2023-04-06T18:03:06.915Z,19.08
2023-04-06T18:05:33.434Z,19.23
2023-04-06T18:07:59.899Z,19.42
2023-04-06T18:10:26.431Z,18.20
2023-04-06T18:12:53.006Z,16.40
2023-04-06T18:15:19.527Z,18.50
2023-04-06T18:17:47.142Z,22.52
2023-04-06T18:20:15.102Z,20.15
2023-04-06T18:22:42.371Z,22.02
2023-04-06T18:25:09.218Z,23.50
2023-04-06T18:27:35.911Z,19.08
2023-04-06T18:30:03.685Z,21.00
2023-04-06T18:32:30.624Z,23.08
2023-04-06T18:34:58.130Z,20.80
2023-04-06T18:37:25.957Z,23.73
2023-04-06T18:39:53.601Z,24.27
2023-04-06T18:42:20.704Z,23.80
2023-04-06T18:44:47.243Z,29.88
2023-04-06T18:47:13.797Z,23.15
2023-04-06T18:49:40.352Z,24.33
2023-04-06T18:52:07.147Z,26.08
2023-04-06T18:54:33.633Z,24.80
2023-04-06T18:57:01.270Z,27.63
2023-04-06T18:59:30.274Z,26.65
2023-04-06T19:01:57.065Z,28.83
2023-04-06T19:04:23.958Z,28.13
2023-04-06T19:06:50.784Z,25.75
2023-04-06T19:09:17.407Z,28.35
2023-04-06T19:11:43.944Z,31.48
2023-04-06T19:14:10.479Z,30.77
2023-04-06T19:16:40.985Z,27.00
2023-04-06T19:19:08.314Z,31.42
2023-04-06T19:21:34.981Z,30.30
2023-04-06T19:24:02.264Z,28.98
2023-04-06T19:26:30.305Z,30.73
2023-04-06T19:28:56.980Z,33.40
2023-04-06T19:31:23.579Z,24.70
2023-04-06T19:33:50.100Z,32.85
2023-04-06T19:36:16.945Z,35.65
2023-04-06T19:38:43.498Z,29.50
2023-04-06T19:41:10.099Z,31.35
2023-04-06T19:43:36.597Z,34.85
2023-04-06T19:46:04.437Z,37.60
2023-04-06T19:48:32.795Z,30.50
2023-04-06T19:50:59.254Z,35.30
2023-04-06T19:53:25.896Z,31.40
2023-04-06T19:55:52.449Z,35.30
2023-04-06T19:58:18.981Z,38.33
2023-04-06T20:00:45.556Z,37.50
2023-04-06T20:03:12.163Z,39.77
2023-04-06T20:05:38.811Z,38.05
2023-04-06T20:08:05.564Z,41.72
2023-04-06T20:10:32.353Z,33.95
2023-04-06T20:13:01.192Z,36.20
2023-04-06T20:15:27.694Z,41.37
2023-04-06T20:17:54.206Z,36.95
2023-04-06T20:20:21.013Z,37.22
2023-04-06T20:22:50.019Z,41.25
2023-04-06T20:25:17.460Z,34.65
2023-04-06T20:27:45.280Z,40.03
2023-04-06T20:30:13.933Z,37.33
2023-04-06T20:32:40.533Z,35.92
2023-04-06T20:35:07.606Z,38.47
2023-04-06T20:37:35.243Z,35.53
2023-04-06T20:40:01.700Z,37.10
2023-04-06T20:42:28.202Z,45.85
2023-04-06T20:44:56.869Z,40.08
2023-04-06T20:47:23.565Z,42.40
2023-04-06T20:49:50.186Z,43.55
2023-04-06T20:52:17.105Z,39.13
2023-04-06T20:54:43.606Z,38.53
2023-04-06T20:57:10.409Z,40.03
2023-04-06T20:59:37.774Z,42.60
2023-04-06T21:02:04.432Z,39.83
2023-04-06T21:04:31.286Z,38.43
2023-04-06T21:06:57.975Z,39.70
2023-04-06T21:09:26.733Z,39.40
2023-04-06T21:11:53.292Z,41.72
2023-04-06T21:14:21.123Z,34.38
2023-04-06T21:16:47.924Z,41.13
2023-04-06T21:19:14.406Z,34.78
2023-04-06T21:21:40.909Z,41.15
2023-04-06T21:24:07.525Z,40.30
2023-04-06T21:26:35.141Z,40.70
2023-04-06T21:29:01.747Z,36.20
2023-04-06T21:31:28.308Z,40.60
2023-04-06T21:33:54.916Z,37.80
2023-04-06T21:36:21.707Z,38.30
2023-04-06T21:38:48.304Z,35.53
2023-04-06T21:41:14.749Z,40.73
2023-04-06T21:43:41.254Z,40.83
2023-04-06T21:46:07.873Z,45.30
2023-04-06T21:48:34.385Z,44.45
2023-04-06T21:51:01.007Z,40.63
2023-04-06T21:53:27.459Z,41.13
2023-04-06T21:55:54.009Z,42.13
2023-04-06T21:58:21.335Z,44.35
2023-04-06T22:00:47.897Z,36.15
2023-04-06T22:03:14.615Z,32.90
2023-04-06T22:05:41.217Z,37.53
2023-04-06T22:08:09.522Z,36.78
2023-04-06T22:10:38.641Z,39.22
2023-04-06T22:13:05.150Z,37.95
2023-04-06T22:15:31.617Z,38.67
2023-04-06T22:17:58.191Z,40.30
2023-04-06T22:20:24.728Z,40.83
2023-04-06T22:22:51.277Z,39.45
2023-04-06T22:25:17.809Z,36.45
2023-04-06T22:27:44.274Z,39.28
2023-04-06T22:30:11.088Z,41.90
2023-04-06T22:32:38.713Z,38.13
2023-04-06T22:35:05.870Z,36.45
2023-04-06T22:37:32.677Z,38.20
2023-04-06T22:39:59.209Z,38.42
2023-04-06T22:42:26.637Z,37.77
2023-04-06T22:44:53.125Z,40.65
2023-04-06T22:47:19.619Z,42.38
2023-04-06T22:49:46.525Z,44.33
2023-04-06T22:52:13.023Z,47.83
2023-04-06T22:54:39.535Z,48.77
2023-04-06T22:57:06.280Z,44.28
2023-04-06T22:59:32.772Z,46.03
2023-04-06T23:01:59.594Z,44.58
2023-04-06T23:04:26.325Z,48.85
2023-04-06T23:06:52.791Z,41.33
2023-04-06T23:09:19.292Z,44.13
2023-04-06T23:11:45.918Z,45.20
2023-04-06T23:14:12.437Z,46.95
2023-04-06T23:16:39.017Z,45.40
2023-04-06T23:19:05.743Z,39.43
2023-04-06T23:21:33.233Z,45.92
2023-04-06T23:24:00.797Z,46.15
2023-04-06T23:26:27.495Z,48.08
2023-04-06T23:28:53.974Z,45.72
2023-04-06T23:31:20.428Z,44.83
2023-04-06T23:33:46.948Z,42.65
2023-04-06T23:36:13.497Z,49.17
2023-04-06T23:38:40.011Z,44.85
2023-04-06T23:41:06.547Z,44.15
2023-04-06T23:43:32.948Z,39.57
2023-04-06T23:45:59.476Z,41.67
2023-04-06T23:48:26.030Z,45.30
2023-04-06T23:50:52.728Z,37.25
2023-04-06T23:53:19.529Z,44.55
2023-04-06T23:55:46.046Z,45.80
2023-04-06T23:58:12.659Z,43.03
